sensor_id;sensor_type;location;lat;lon;timestamp;temperature;humidity
20162;DHT22;51382;53.180;15.414;2022-08-01T00:02:16;17.50;99.90
20162;DHT22;51382;53.180;15.414;2022-08-01T00:17:27;17.60;99.90
20162;DHT22;51382;53.180;15.414;2022-08-01T00:32:38;17.70;99.90
20162;DHT22;51382;53.180;15.414;2022-08-01T00:47:49;17.60;99.90
20162;DHT22;51382;53.180;15.414;2022-08-01T01:03:00;17.60;99.90
20162;DHT22;51382;53.180;15.414;2022-08-01T01:18:13;17.50;99.90
20162;DHT22;51382;53.180;15.414;2022-08-01T01:33:26;17.60;99.90
20162;DHT22;51382;53.180;15.414;2022-08-01T01:48:40;17.70;99.90
20162;DHT22;51382;53.180;15.414;2022-08-01T02:03:55;17.60;99.90
20162;DHT22;51382;53.180;15.414;2022-08-01T02:19:03;17.30;99.90
20162;DHT22;51382;53.180;15.414;2022-08-01T02:34:14;17.40;99.90
20162;DHT22;51382;53.180;15.414;2022-08-01T02:49:28;17.20;99.90
20162;DHT22;51382;53.180;15.414;2022-08-01T03:04:42;17.20;99.90
20162;DHT22;51382;53.180;15.414;2022-08-01T03:19:54;17.00;99.90
20162;DHT22;51382;53.180;15.414;2022-08-01T03:35:08;17.10;99.90
20162;DHT22;51382;53.180;15.414;2022-08-01T03:50:19;17.30;99.90
20162;DHT22;51382;53.180;15.414;2022-08-01T04:05:34;17.30;99.90
20162;DHT22;51382;53.180;15.414;2022-08-01T04:20:40;17.80;99.90
20162;DHT22;51382;53.180;15.414;2022-08-01T04:35:51;17.60;99.90
20162;DHT22;51382;53.180;15.414;2022-08-01T04:51:03;17.50;99.90
20162;DHT22;51382;53.180;15.414;2022-08-01T05:06:20;17.80;99.90
20162;DHT22;51382;53.180;15.414;2022-08-01T05:21:31;18.10;99.90
20162;DHT22;51382;53.180;15.414;2022-08-01T05:36:42;18.40;99.90
20162;DHT22;51382;53.180;15.414;2022-08-01T05:51:53;18.30;99.90
20162;DHT22;51382;53.180;15.414;2022-08-01T06:07:04;19.00;99.90
20162;DHT22;51382;53.180;15.414;2022-08-01T06:22:15;19.30;99.90
20162;DHT22;51382;53.180;15.414;2022-08-01T06:37:29;19.90;99.90
20162;DHT22;51382;53.180;15.414;2022-08-01T06:52:40;20.30;99.90
20162;DHT22;51382;53.180;15.414;2022-08-01T07:07:47;21.20;99.90
20162;DHT22;51382;53.180;15.414;2022-08-01T07:22:58;24.40;99.90
20162;DHT22;51382;53.180;15.414;2022-08-01T07:38:09;25.90;99.90
20162;DHT22;51382;53.180;15.414;2022-08-01T07:53:16;25.00;99.90
20162;DHT22;51382;53.180;15.414;2022-08-01T08:08:27;24.90;99.90
20162;DHT22;51382;53.180;15.414;2022-08-01T08:23:38;24.70;99.90
20162;DHT22;51382;53.180;15.414;2022-08-01T08:39:06;25.80;99.90
20162;DHT22;51382;53.180;15.414;2022-08-01T08:54:18;25.70;99.90
20162;DHT22;51382;53.180;15.414;2022-08-01T09:09:31;26.10;99.90
20162;DHT22;51382;53.180;15.414;2022-08-01T09:24:43;25.00;99.90
20162;DHT22;51382;53.180;15.414;2022-08-01T09:40:09;25.20;99.90
20162;DHT22;51382;53.180;15.414;2022-08-01T09:55:21;25.80;99.90
20162;DHT22;51382;53.180;15.414;2022-08-01T10:10:32;25.60;99.90
20162;DHT22;51382;53.180;15.414;2022-08-01T10:25:43;26.40;99.90
20162;DHT22;51382;53.180;15.414;2022-08-01T10:40:55;25.70;99.90
20162;DHT22;51382;53.180;15.414;2022-08-01T10:56:11;25.80;99.90
20162;DHT22;51382;53.180;15.414;2022-08-01T11:11:25;25.90;99.90
20162;DHT22;51382;53.180;15.414;2022-08-01T11:26:36;26.90;99.90
20162;DHT22;51382;53.180;15.414;2022-08-01T11:41:47;26.80;99.90
20162;DHT22;51382;53.180;15.414;2022-08-01T11:56:59;26.40;99.90
20162;DHT22;51382;53.180;15.414;2022-08-01T12:12:12;26.00;99.90
20162;DHT22;51382;53.180;15.414;2022-08-01T12:27:28;25.60;99.90
20162;DHT22;51382;53.180;15.414;2022-08-01T12:42:39;26.10;99.90
20162;DHT22;51382;53.180;15.414;2022-08-01T12:58:04;26.40;99.90
20162;DHT22;51382;53.180;15.414;2022-08-01T13:13:16;26.70;99.90
20162;DHT22;51382;53.180;15.414;2022-08-01T13:28:29;26.50;99.90
20162;DHT22;51382;53.180;15.414;2022-08-01T13:43:40;26.00;99.90
20162;DHT22;51382;53.180;15.414;2022-08-01T13:58:51;25.70;99.90
20162;DHT22;51382;53.180;15.414;2022-08-01T14:13:57;26.10;99.90
20162;DHT22;51382;53.180;15.414;2022-08-01T14:29:08;25.60;99.90
20162;DHT22;51382;53.180;15.414;2022-08-01T14:44:19;25.30;99.90
20162;DHT22;51382;53.180;15.414;2022-08-01T14:59:30;24.90;99.90
20162;DHT22;51382;53.180;15.414;2022-08-01T15:14:41;25.00;99.90
20162;DHT22;51382;53.180;15.414;2022-08-01T15:29:58;24.30;99.90
20162;DHT22;51382;53.180;15.414;2022-08-01T15:45:09;23.70;99.90
20162;DHT22;51382;53.180;15.414;2022-08-01T16:00:24;23.30;99.90
20162;DHT22;51382;53.180;15.414;2022-08-01T16:15:35;22.80;99.90
20162;DHT22;51382;53.180;15.414;2022-08-01T16:30:47;22.50;99.90
20162;DHT22;51382;53.180;15.414;2022-08-01T16:45:58;22.30;99.90
20162;DHT22;51382;53.180;15.414;2022-08-01T17:01:09;22.10;99.90
20162;DHT22;51382;53.180;15.414;2022-08-01T17:16:20;21.60;99.90
20162;DHT22;51382;53.180;15.414;2022-08-01T17:31:31;21.00;99.90
20162;DHT22;51382;53.180;15.414;2022-08-01T17:46:42;20.80;99.90
20162;DHT22;51382;53.180;15.414;2022-08-01T18:01:53;20.70;99.90
20162;DHT22;51382;53.180;15.414;2022-08-01T18:17:04;19.90;99.90
20162;DHT22;51382;53.180;15.414;2022-08-01T18:32:19;20.00;99.90
20162;DHT22;51382;53.180;15.414;2022-08-01T18:47:30;20.00;99.90
20162;DHT22;51382;53.180;15.414;2022-08-01T19:02:41;19.90;99.90
20162;DHT22;51382;53.180;15.414;2022-08-01T19:17:53;19.90;99.90
20162;DHT22;51382;53.180;15.414;2022-08-01T19:33:04;19.80;99.90
20162;DHT22;51382;53.180;15.414;2022-08-01T19:48:15;19.70;99.90
20162;DHT22;51382;53.180;15.414;2022-08-01T20:03:28;19.60;99.90
20162;DHT22;51382;53.180;15.414;2022-08-01T20:18:42;19.20;99.90
20162;DHT22;51382;53.180;15.414;2022-08-01T20:33:53;19.00;99.90
20162;DHT22;51382;53.180;15.414;2022-08-01T20:49:05;18.70;99.90
20162;DHT22;51382;53.180;15.414;2022-08-01T21:04:31;18.60;99.90
20162;DHT22;51382;53.180;15.414;2022-08-01T21:19:52;18.50;99.90
20162;DHT22;51382;53.180;15.414;2022-08-01T21:35:06;18.40;99.90
20162;DHT22;51382;53.180;15.414;2022-08-01T21:50:21;18.10;99.90
20162;DHT22;51382;53.180;15.414;2022-08-01T22:05:28;17.90;99.90
20162;DHT22;51382;53.180;15.414;2022-08-01T22:20:41;17.60;99.90
20162;DHT22;51382;53.180;15.414;2022-08-01T22:35:55;17.20;99.90
20162;DHT22;51382;53.180;15.414;2022-08-01T22:51:08;16.90;99.90
20162;DHT22;51382;53.180;15.414;2022-08-01T23:06:32;16.40;99.90
20162;DHT22;51382;53.180;15.414;2022-08-01T23:21:49;15.70;99.90
20162;DHT22;51382;53.180;15.414;2022-08-01T23:37:01;15.20;99.90
20162;DHT22;51382;53.180;15.414;2022-08-01T23:52:12;15.00;99.90
